Time;durP1;ratioP1;P1;durP2;ratioP2;P2;SDS_P1;SDS_P2;PMS_P1;PMS_P2;Temp;Humidity;BMP_temperature;BMP_pressure;BME280_temperature;BME280_humidity;BME280_pressure;Samples;Min_cycle;Max_cycle;Signal;HPM_P1;HPM_P2
2022/11/11 00:01:48;;;;;;;16.90;12.90;;;;;;;5.63;100.00;98026.09;104704;1309;22539;-78
2022/11/11 00:04:19;;;;;;;16.00;12.40;;;;;;;5.62;100.00;98027.77;104695;1302;22647;-78
2022/11/11 00:06:52;;;;;;;21.80;13.10;;;;;;;5.64;100.00;98032.67;104653;1310;26455;-78
2022/11/11 00:09:23;;;;;;;20.10;13.80;;;;;;;5.73;100.00;98036.66;104798;1309;23850;-78
2022/11/11 00:11:54;;;;;;;18.80;13.00;;;;;;;5.80;100.00;98033.80;104773;1302;25279;-78
2022/11/11 00:14:28;;;;;;;21.70;13.70;;;;;;;5.82;100.00;98039.00;104823;1291;22540;-78
2022/11/11 00:25:25;;;;;;;18.30;12.30;;;;;;;5.85;100.00;98056.06;104708;1282;22516;-78
2022/11/11 00:27:56;;;;;;;17.40;13.30;;;;;;;5.86;100.00;98060.10;104678;1295;25501;-78
2022/11/11 00:30:28;;;;;;;16.90;12.80;;;;;;;5.86;100.00;98061.76;104745;1286;22551;-77
2022/11/11 00:32:59;;;;;;;19.40;13.60;;;;;;;5.84;100.00;98061.45;104753;1295;22463;-77
2022/11/11 00:41:04;;;;;;;19.30;13.30;;;;;;;5.75;100.00;98063.61;104783;1293;23361;-78
2022/11/11 00:43:35;;;;;;;17.80;13.70;;;;;;;5.74;100.00;98068.10;104793;1303;22987;-78
2022/11/11 00:51:43;;;;;;;18.50;12.40;;;;;;;5.82;100.00;98063.70;104772;1296;22493;-78
2022/11/11 00:54:15;;;;;;;20.10;13.30;;;;;;;5.84;100.00;98067.56;104799;1310;22454;-78
2022/11/11 00:56:46;;;;;;;16.70;13.40;;;;;;;5.85;100.00;98060.55;104741;1309;22518;-77
2022/11/11 00:59:17;;;;;;;18.30;12.10;;;;;;;5.85;100.00;98062.09;104728;1296;22535;-78
2022/11/11 01:01:48;;;;;;;17.80;13.10;;;;;;;5.83;100.00;98065.70;104699;1301;22478;-78
2022/11/11 01:04:19;;;;;;;18.10;13.30;;;;;;;5.83;100.00;98059.64;104702;1310;24352;-78
2022/11/11 01:06:52;;;;;;;16.60;12.80;;;;;;;5.84;100.00;98053.40;104700;1308;23664;-77
2022/11/11 01:09:24;;;;;;;17.80;13.10;;;;;;;5.85;100.00;98056.34;104840;1301;25410;-78
2022/11/11 01:11:55;;;;;;;18.90;13.10;;;;;;;5.85;100.00;98055.81;104788;1286;22552;-78
2022/11/11 01:14:26;;;;;;;18.80;13.20;;;;;;;5.87;100.00;98052.45;104823;1307;22495;-78
2022/11/11 01:17:03;;;;;;;18.50;13.30;;;;;;;5.86;100.00;98052.33;104704;1309;22977;-77
2022/11/11 01:19:34;;;;;;;17.90;13.40;;;;;;;5.83;100.00;98051.49;104736;1309;25469;-78
2022/11/11 01:22:06;;;;;;;18.30;13.30;;;;;;;5.83;100.00;98047.05;104724;1310;24413;-78
2022/11/11 01:24:38;;;;;;;17.50;12.00;;;;;;;5.79;100.00;98045.23;104717;1292;22833;-77
2022/11/11 01:27:09;;;;;;;19.40;12.70;;;;;;;5.79;100.00;98049.30;104695;1293;22664;-78
2022/11/11 01:29:43;;;;;;;19.20;12.80;;;;;;;5.79;100.00;98050.73;104788;1309;25514;-78
2022/11/11 01:32:14;;;;;;;18.70;13.00;;;;;;;5.81;100.00;98051.27;104788;1303;25305;-78
2022/11/11 01:34:45;;;;;;;17.30;13.40;;;;;;;5.91;100.00;98045.05;104789;1286;24501;-78
2022/11/11 01:37:16;;;;;;;18.60;12.40;;;;;;;5.99;100.00;98043.56;104703;1293;25248;-78
2022/11/11 01:39:47;;;;;;;16.20;12.60;;;;;;;6.03;100.00;98042.20;104748;1310;22705;-78
2022/11/11 01:42:21;;;;;;;18.10;13.60;;;;;;;6.08;100.00;98043.52;104774;1290;22483;-78
2022/11/11 01:44:53;;;;;;;18.40;13.00;;;;;;;6.13;100.00;98044.19;104801;1310;22782;-78
2022/11/11 01:49:17;;;;;;;19.10;13.80;;;;;;;6.18;100.00;98044.92;104733;1310;22698;-78
2022/11/11 01:50:18;;;;;;;18.00;12.40;;;;;;;6.21;100.00;98042.73;104799;1293;22630;-78
2022/11/11 01:52:49;;;;;;;15.20;12.00;;;;;;;6.25;100.00;98045.48;104802;1310;22480;-78
2022/11/11 01:55:24;;;;;;;19.40;12.60;;;;;;;6.27;100.00;98045.59;104776;1307;22478;-78
2022/11/11 01:57:58;;;;;;;17.70;12.70;;;;;;;6.28;100.00;98046.19;104709;1309;27051;-78
2022/11/11 02:00:29;;;;;;;15.80;12.10;;;;;;;6.30;100.00;98047.50;104802;1304;24348;-78
2022/11/11 02:03:06;;;;;;;17.20;12.50;;;;;;;6.30;100.00;98053.25;104777;1302;22502;-78
2022/11/11 02:05:44;;;;;;;16.40;11.30;;;;;;;6.29;100.00;98056.39;104772;1292;23961;-78
2022/11/11 02:08:31;;;;;;;16.20;11.60;;;;;;;6.34;100.00;98053.71;104739;1309;23279;-78
2022/11/11 02:11:05;;;;;;;16.20;10.80;;;;;;;6.42;100.00;98054.95;104759;1309;22506;-78
2022/11/11 02:16:29;;;;;;;15.00;11.00;;;;;;;6.54;100.00;98054.19;104710;1302;22467;-77
2022/11/11 02:19:01;;;;;;;17.50;10.80;;;;;;;6.59;100.00;98056.69;104773;1304;22634;-78
2022/11/11 02:21:41;;;;;;;15.20;11.20;;;;;;;6.62;100.00;98058.63;104771;1290;22469;-78
2022/11/11 02:24:16;;;;;;;13.90;10.30;;;;;;;6.67;99.95;98054.36;104799;1299;22491;-78
2022/11/11 02:26:48;;;;;;;15.60;10.00;;;;;;;6.70;99.83;98055.71;104734;1302;22943;-78
2022/11/11 02:29:22;;;;;;;16.50;10.50;;;;;;;6.73;99.66;98061.63;104790;1303;22532;-78
2022/11/11 02:31:53;;;;;;;14.80;10.10;;;;;;;6.76;99.49;98062.91;104800;1308;22638;-78
2022/11/11 02:34:31;;;;;;;13.80;10.10;;;;;;;6.78;99.45;98066.92;104770;1296;25518;-78
2022/11/11 02:37:05;;;;;;;15.00;10.70;;;;;;;6.78;99.18;98067.52;104732;1296;24167;-78
2022/11/11 02:39:40;;;;;;;15.90;11.00;;;;;;;6.80;99.05;98067.53;104754;1310;22512;-78
2022/11/11 02:42:14;;;;;;;14.00;10.20;;;;;;;6.81;99.15;98070.40;104770;1310;22456;-78
2022/11/11 02:44:46;;;;;;;17.70;10.60;;;;;;;6.84;98.94;98074.06;104801;1309;22515;-78
2022/11/11 02:47:17;;;;;;;16.10;10.80;;;;;;;6.85;98.91;98072.45;104775;1290;22465;-78
2022/11/11 02:49:48;;;;;;;12.80;10.00;;;;;;;6.86;98.72;98075.00;104749;1309;25311;-78
2022/11/11 02:52:21;;;;;;;14.30;9.70;;;;;;;6.85;98.81;98080.00;104760;1296;25539;-78
2022/11/11 02:54:53;;;;;;;15.10;10.40;;;;;;;6.85;98.48;98083.62;104756;1309;22476;-78
2022/11/11 02:57:24;;;;;;;14.60;10.70;;;;;;;6.84;98.45;98090.19;104730;1308;24527;-78
2022/11/11 02:59:58;;;;;;;15.00;10.10;;;;;;;6.82;98.40;98096.98;104755;1302;22519;-78
2022/11/11 03:02:29;;;;;;;13.90;10.10;;;;;;;6.82;98.53;98098.73;104763;1311;24356;-78
2022/11/11 03:05:00;;;;;;;15.30;10.70;;;;;;;6.83;98.48;98098.44;104809;1307;22502;-78
2022/11/11 03:07:32;;;;;;;16.00;10.60;;;;;;;6.83;98.59;98096.65;104742;1303;24368;-78
2022/11/11 03:10:03;;;;;;;15.30;10.60;;;;;;;6.81;98.21;98099.08;104775;1288;22490;-78
2022/11/11 03:12:34;;;;;;;14.00;10.60;;;;;;;6.79;98.36;98101.37;104786;1296;22519;-78
2022/11/11 03:15:06;;;;;;;13.90;9.90;;;;;;;6.76;98.37;98101.20;104781;1302;22546;-78
2022/11/11 03:17:40;;;;;;;16.90;11.20;;;;;;;6.77;98.47;98095.31;104735;1309;23024;-78
2022/11/11 03:23:02;;;;;;;;;;;;;;;6.88;98.22;98101.58;104809;1311;22582;-78
2022/11/11 03:25:40;;;;;;;16.20;9.60;;;;;;;6.88;98.18;98096.92;104789;1310;22485;-78
2022/11/11 03:28:13;;;;;;;16.60;10.90;;;;;;;6.86;98.16;98092.29;104723;1295;22488;-78
2022/11/11 03:30:46;;;;;;;18.30;11.70;;;;;;;6.83;97.92;98094.54;104719;1298;23519;-78
2022/11/11 03:33:18;;;;;;;14.00;10.40;;;;;;;6.79;97.96;98086.88;104713;1309;22538;-77
2022/11/11 03:35:49;;;;;;;14.70;10.50;;;;;;;6.76;98.05;98086.23;104725;1289;24325;-77
2022/11/11 03:38:23;;;;;;;14.10;10.10;;;;;;;6.77;97.94;98087.92;104738;1287;22490;-78
2022/11/11 03:40:56;;;;;;;15.90;11.10;;;;;;;6.78;98.04;98081.05;104824;1311;25474;-78
2022/11/11 03:43:28;;;;;;;15.70;11.00;;;;;;;6.78;98.13;98077.83;104830;1303;26097;-78
2022/11/11 03:46:01;;;;;;;16.70;10.90;;;;;;;6.77;98.09;98074.42;104795;1309;22478;-78
2022/11/11 03:48:33;;;;;;;15.50;11.50;;;;;;;6.76;98.25;98079.38;104679;1311;22488;-78
2022/11/11 03:51:05;;;;;;;14.60;10.70;;;;;;;6.77;98.14;98080.91;104760;1302;22480;-78
2022/11/11 03:53:40;;;;;;;16.50;10.80;;;;;;;6.77;98.12;98080.50;104730;1311;22502;-78
2022/11/11 03:56:11;;;;;;;14.90;9.70;;;;;;;6.80;97.82;98084.52;104748;1286;22472;-78
2022/11/11 03:58:42;;;;;;;12.30;7.80;;;;;;;6.85;97.90;98089.95;104722;1311;22843;-78
2022/11/11 04:10:21;;;;;;;12.30;8.00;;;;;;;6.93;97.80;98092.89;104692;1311;22481;-78
2022/11/11 04:21:41;;;;;;;10.60;7.40;;;;;;;7.05;96.19;98094.42;104633;1303;22533;-78
2022/11/11 04:24:01;;;;;;;12.60;8.20;;;;;;;7.04;96.09;98091.09;104670;1292;22473;-78
2022/11/11 04:26:32;;;;;;;13.10;8.60;;;;;;;7.01;95.91;98096.87;104640;1296;22702;-78
2022/11/11 04:34:40;;;;;;;12.30;8.50;;;;;;;6.97;95.68;98088.36;104687;1289;25265;-78
2022/11/11 04:37:12;;;;;;;13.60;9.00;;;;;;;6.96;95.65;98081.98;104641;1292;22541;-78
2022/11/11 04:42:33;;;;;;;11.30;8.10;;;;;;;6.94;95.60;98079.89;104694;1310;22487;-79
2022/11/11 04:47:59;;;;;;;15.60;9.40;;;;;;;6.86;95.50;98088.23;104652;1296;26433;-78
2022/11/11 04:50:34;;;;;;;13.00;9.10;;;;;;;6.81;95.52;98088.52;104659;1303;22552;-78
2022/11/11 04:53:09;;;;;;;13.90;9.00;;;;;;;6.80;95.50;98087.16;104676;1295;25491;-78
2022/11/11 04:58:32;;;;;;;11.50;7.60;;;;;;;6.76;95.45;98087.68;104654;1298;22481;-79
2022/11/11 05:01:03;;;;;;;12.10;9.00;;;;;;;6.73;95.47;98086.11;104696;1311;22496;-79
2022/11/11 05:03:37;;;;;;;11.00;7.20;;;;;;;6.71;95.43;98082.61;104703;1303;22483;-79
2022/11/11 05:08:57;;;;;;;10.60;6.40;;;;;;;6.67;95.41;98078.86;104685;1310;25636;-79
2022/11/11 05:11:31;;;;;;;15.90;8.00;;;;;;;6.66;95.40;98081.00;104681;1310;22469;-79
2022/11/11 05:22:36;;;;;;;11.00;7.20;;;;;;;6.68;95.16;98102.23;104684;1296;22535;-79
2022/11/11 05:25:29;;;;;;;10.10;7.00;;;;;;;6.69;95.21;98107.16;104658;1310;22504;-79
2022/11/11 05:28:00;;;;;;;9.60;6.70;;;;;;;6.68;95.02;98105.40;104661;1310;22534;-79
2022/11/11 05:30:33;;;;;;;9.50;6.70;;;;;;;6.67;95.05;98109.70;104668;1302;22562;-79
2022/11/11 05:33:04;;;;;;;12.50;7.80;;;;;;;6.68;94.95;98116.64;104725;1296;25571;-79
2022/11/11 05:35:36;;;;;;;13.20;7.10;;;;;;;6.66;94.95;98121.42;104645;1289;22523;-79
2022/11/11 05:40:53;;;;;;;10.60;6.60;;;;;;;6.72;94.99;98120.96;104762;1311;22470;-79
2022/11/11 05:43:24;;;;;;;10.10;7.00;;;;;;;6.75;94.93;98107.68;104766;1309;22521;-79
2022/11/11 05:45:56;;;;;;;12.00;7.90;;;;;;;6.78;94.73;98115.89;104777;1311;22578;-79
2022/11/11 05:48:27;;;;;;;9.80;6.00;;;;;;;6.73;94.51;98121.15;104630;1297;22652;-79
2022/11/11 05:51:00;;;;;;;13.20;7.00;;;;;;;6.71;94.60;98121.45;104690;1302;22532;-78
2022/11/11 05:53:33;;;;;;;10.80;7.10;;;;;;;6.71;94.59;98127.42;104681;1292;22521;-79
2022/11/11 05:56:05;;;;;;;11.70;6.90;;;;;;;6.71;94.70;98126.85;104684;1310;22487;-78
2022/11/11 05:58:36;;;;;;;10.40;7.00;;;;;;;6.76;94.64;98134.12;104618;1300;34210;-79
2022/11/11 06:01:07;;;;;;;13.10;7.50;;;;;;;6.77;94.44;98142.39;104674;1295;22475;-79
2022/11/11 06:03:39;;;;;;;11.30;6.90;;;;;;;6.76;94.45;98147.05;104658;1299;25440;-79
2022/11/11 06:06:13;;;;;;;11.60;7.60;;;;;;;6.78;94.62;98149.96;104634;1310;22478;-77
2022/11/11 06:08:44;;;;;;;10.20;6.60;;;;;;;6.79;94.50;98157.20;104650;1310;22480;-79
2022/11/11 06:11:16;;;;;;;13.50;8.90;;;;;;;6.80;94.62;98162.34;104689;1309;22488;-78
2022/11/11 06:13:48;;;;;;;12.00;6.70;;;;;;;6.83;94.68;98167.50;104643;1303;22488;-78
2022/11/11 06:16:19;;;;;;;12.90;7.20;;;;;;;6.88;94.65;98174.17;104640;1291;23426;-78
2022/11/11 06:18:52;;;;;;;10.50;6.70;;;;;;;6.92;94.62;98176.23;104673;1295;22483;-79
2022/11/11 06:21:24;;;;;;;12.20;7.20;;;;;;;6.94;94.34;98172.60;104679;1303;22541;-78
2022/11/11 06:23:58;;;;;;;12.40;6.60;;;;;;;6.95;94.18;98168.87;104656;1310;22572;-78
2022/11/11 06:26:31;;;;;;;9.00;6.50;;;;;;;6.90;94.12;98168.41;104646;1303;22475;-78
2022/11/11 06:29:03;;;;;;;11.40;6.60;;;;;;;6.80;93.98;98177.31;104673;1288;22479;-78
2022/11/11 06:31:34;;;;;;;9.20;6.50;;;;;;;6.78;94.16;98176.84;104676;1302;22940;-78
2022/11/11 06:34:06;;;;;;;9.40;6.30;;;;;;;6.82;94.39;98175.21;104624;1310;24338;-78
2022/11/11 06:36:37;;;;;;;10.20;6.70;;;;;;;6.89;94.44;98162.90;104623;1310;24268;-78
2022/11/11 06:39:09;;;;;;;11.10;6.70;;;;;;;6.94;94.42;98159.46;104682;1310;22520;-78
2022/11/11 06:41:43;;;;;;;11.40;7.30;;;;;;;7.02;94.42;98162.23;104652;1311;22506;-79
2022/11/11 06:44:14;;;;;;;10.30;6.80;;;;;;;7.10;94.31;98163.65;104685;1304;25469;-79
2022/11/11 06:46:46;;;;;;;7.60;6.00;;;;;;;7.17;94.28;98164.77;104625;1305;25266;-78
2022/11/11 06:49:17;;;;;;;11.70;7.30;;;;;;;7.23;93.97;98169.95;104704;1311;22477;-79
2022/11/11 06:51:50;;;;;;;11.90;7.00;;;;;;;7.30;93.90;98170.35;104697;1310;22467;-79
2022/11/11 06:54:23;;;;;;;10.60;7.60;;;;;;;7.39;93.87;98166.58;104690;1311;22506;-79
2022/11/11 06:56:55;;;;;;;8.90;5.40;;;;;;;7.48;93.63;98161.33;104657;1303;26648;-79
2022/11/11 06:59:29;;;;;;;10.10;6.20;;;;;;;7.49;93.02;98150.02;104692;1296;22477;-79
2022/11/11 07:02:01;;;;;;;9.60;7.10;;;;;;;7.46;92.84;98145.83;104673;1296;22510;-78
2022/11/11 07:04:34;;;;;;;9.70;6.60;;;;;;;7.43;92.73;98147.84;104713;1309;22485;-78
2022/11/11 07:07:06;;;;;;;9.80;6.20;;;;;;;7.37;92.59;98147.23;104610;1288;22508;-79
2022/11/11 07:09:38;;;;;;;11.80;6.10;;;;;;;7.33;92.59;98152.88;104674;1303;22542;-79
2022/11/11 07:12:09;;;;;;;10.50;7.20;;;;;;;7.28;92.67;98152.63;104674;1295;25565;-79
2022/11/11 07:14:41;;;;;;;10.00;6.80;;;;;;;7.24;92.68;98155.52;104671;1311;22588;-79
2022/11/11 07:17:12;;;;;;;10.90;6.50;;;;;;;7.20;92.65;98164.99;104619;1303;24294;-78
2022/11/11 07:19:44;;;;;;;12.50;7.30;;;;;;;7.17;92.69;98165.40;104631;1311;22486;-79
2022/11/11 07:22:15;;;;;;;10.60;6.40;;;;;;;7.16;93.02;98158.91;104648;1310;22472;-78
2022/11/11 07:24:47;;;;;;;9.90;6.00;;;;;;;7.19;92.99;98155.70;104634;1302;22471;-78
2022/11/11 07:27:18;;;;;;;12.70;6.90;;;;;;;7.23;92.78;98149.25;104636;1303;25311;-78
2022/11/11 07:29:52;;;;;;;10.30;7.40;;;;;;;7.25;92.81;98151.86;104663;1310;22494;-79
2022/11/11 07:32:24;;;;;;;13.20;6.80;;;;;;;7.30;92.79;98152.69;104683;1289;25371;-78
2022/11/11 07:34:57;;;;;;;9.90;6.30;;;;;;;7.35;92.76;98153.67;104661;1311;22487;-79
2022/11/11 07:37:30;;;;;;;9.60;6.70;;;;;;;7.39;92.62;98159.91;104636;1301;22478;-78
2022/11/11 07:40:02;;;;;;;10.80;6.80;;;;;;;7.41;92.54;98161.02;103920;1309;1174116;-78
2022/11/11 07:42:35;;;;;;;9.90;6.60;;;;;;;7.41;92.38;98163.77;104687;1296;22523;-78
2022/11/11 07:45:09;;;;;;;11.30;7.50;;;;;;;7.42;92.54;98163.92;104643;1310;22476;-79
2022/11/11 07:47:42;;;;;;;11.60;8.00;;;;;;;7.50;92.48;98161.45;104627;1310;22543;-78
2022/11/11 07:50:16;;;;;;;10.80;7.00;;;;;;;7.57;92.29;98161.16;104679;1293;22933;-78
2022/11/11 07:52:51;;;;;;;10.90;7.20;;;;;;;7.67;92.41;98158.19;104667;1311;24281;-78
2022/11/11 07:55:23;;;;;;;10.60;7.90;;;;;;;7.76;91.89;98154.27;104688;1310;24340;-78
2022/11/11 07:57:55;;;;;;;9.00;6.60;;;;;;;7.93;91.93;98157.53;104623;1311;23793;-78
2022/11/11 08:00:29;;;;;;;10.40;6.70;;;;;;;7.97;91.33;98157.48;104730;1292;22480;-78
2022/11/11 08:03:00;;;;;;;10.70;6.80;;;;;;;7.96;90.84;98152.91;104749;1315;22486;-79
2022/11/11 08:05:32;;;;;;;10.10;6.50;;;;;;;8.06;90.69;98157.52;104713;1301;22475;-78
2022/11/11 08:08:07;;;;;;;10.40;6.20;;;;;;;8.27;90.39;98158.73;104692;1310;22523;-79
2022/11/11 08:10:39;;;;;;;8.40;5.20;;;;;;;8.33;89.78;98148.66;104755;1311;22489;-79
2022/11/11 08:16:05;;;;;;;10.60;6.40;;;;;;;8.56;89.65;98143.58;104759;1310;22500;-78
2022/11/11 08:18:37;;;;;;;9.20;5.70;;;;;;;9.25;89.53;98136.55;104680;1312;33407;-79
2022/11/11 08:21:10;;;;;;;10.10;6.20;;;;;;;9.59;88.28;98123.52;104754;1297;22620;-79
2022/11/11 08:23:43;;;;;;;11.30;6.90;;;;;;;9.71;87.11;98120.88;104683;1311;24387;-79
2022/11/11 08:26:15;;;;;;;8.80;6.40;;;;;;;9.63;86.20;98112.52;104647;1293;22481;-78
2022/11/11 08:28:48;;;;;;;9.90;6.00;;;;;;;9.53;86.02;98114.49;104649;1302;25350;-79
2022/11/11 08:31:21;;;;;;;8.70;6.10;;;;;;;9.45;85.82;98117.52;104687;1306;22592;-79
2022/11/11 08:33:53;;;;;;;10.60;6.20;;;;;;;9.39;85.88;98122.24;104698;1306;22583;-79
2022/11/11 08:36:25;;;;;;;9.30;4.80;;;;;;;9.32;85.42;98112.84;104600;1296;22490;-79
2022/11/11 08:38:56;;;;;;;9.90;5.60;;;;;;;9.16;84.74;98111.59;104666;1289;22476;-79
2022/11/11 08:41:28;;;;;;;7.90;5.00;;;;;;;9.10;84.96;98113.12;104706;1311;22493;-79
2022/11/11 08:44:00;;;;;;;8.70;5.70;;;;;;;9.14;85.00;98117.50;104659;1309;22495;-79
2022/11/11 08:46:32;;;;;;;10.50;6.80;;;;;;;9.22;85.03;98122.11;104619;1295;28701;-78
2022/11/11 08:49:03;;;;;;;9.20;6.20;;;;;;;9.22;84.72;98124.23;104668;1301;25242;-79
2022/11/11 08:51:35;;;;;;;10.40;5.40;;;;;;;9.43;84.59;98129.73;104649;1301;22480;-79
2022/11/11 08:54:07;;;;;;;9.80;6.30;;;;;;;9.63;84.70;98130.05;104658;1292;26460;-80
2022/11/11 08:56:39;;;;;;;8.50;5.80;;;;;;;9.87;84.44;98129.67;104669;1305;22924;-80
2022/11/11 08:59:13;;;;;;;10.40;6.40;;;;;;;9.94;83.65;98137.11;104686;1295;22512;-80
2022/11/11 09:01:45;;;;;;;8.20;5.60;;;;;;;9.90;83.33;98140.17;104701;1296;22491;-80
2022/11/11 09:04:17;;;;;;;9.70;5.60;;;;;;;9.89;82.72;98146.35;104719;1310;22471;-79
2022/11/11 09:06:49;;;;;;;8.60;5.50;;;;;;;10.00;82.98;98151.33;104659;1295;22513;-80
2022/11/11 09:09:20;;;;;;;8.70;5.10;;;;;;;10.14;83.10;98139.70;104660;1293;25324;-80
2022/11/11 09:11:52;;;;;;;9.60;6.30;;;;;;;10.17;82.49;98141.73;104679;1311;22733;-80
2022/11/11 09:14:24;;;;;;;9.10;5.30;;;;;;;10.08;82.17;98141.61;104653;1310;22477;-80
2022/11/11 09:16:56;;;;;;;8.00;5.50;;;;;;;10.02;81.91;98139.71;104658;1308;22697;-80
2022/11/11 09:19:27;;;;;;;8.80;5.30;;;;;;;10.17;82.47;98140.68;104811;1307;22492;-80
2022/11/11 09:22:00;;;;;;;7.70;4.40;;;;;;;10.50;82.69;98145.19;104795;1309;22477;-80
2022/11/11 09:24:34;;;;;;;9.80;5.40;;;;;;;10.88;83.13;98142.73;104792;1310;22463;-80
2022/11/11 09:27:05;;;;;;;10.00;6.20;;;;;;;11.21;81.74;98141.89;104722;1303;22467;-80
2022/11/11 09:29:38;;;;;;;6.80;5.10;;;;;;;11.36;80.47;98138.42;104645;1310;22605;-80
2022/11/11 09:32:09;;;;;;;8.50;5.00;;;;;;;11.25;78.88;98136.86;104671;1310;22463;-80
2022/11/11 09:34:40;;;;;;;8.70;5.80;;;;;;;11.12;78.95;98140.23;104697;1310;22533;-80
2022/11/11 09:37:12;;;;;;;7.10;5.10;;;;;;;11.14;78.14;98134.15;104632;1310;22501;-80
2022/11/11 09:39:43;;;;;;;8.20;5.00;;;;;;;11.25;78.55;98118.53;104662;1310;25293;-80
2022/11/11 09:42:30;;;;;;;7.90;5.20;;;;;;;11.21;78.01;98106.27;104665;1293;22481;-80
2022/11/11 09:45:16;;;;;;;7.30;5.60;;;;;;;11.19;78.45;98099.76;104671;1297;22497;-80
2022/11/11 09:47:57;;;;;;;7.80;5.60;;;;;;;11.14;77.15;98098.05;104595;1310;22502;-80
2022/11/11 09:50:31;;;;;;;8.50;5.80;;;;;;;11.03;77.92;98108.84;104628;1295;22540;-79
2022/11/11 09:53:12;;;;;;;10.60;5.50;;;;;;;11.00;77.65;98120.95;104648;1305;22496;-80
2022/11/11 09:55:45;;;;;;;7.70;5.40;;;;;;;11.03;77.06;98121.25;104635;1308;22509;-80
2022/11/11 09:58:23;;;;;;;10.10;4.90;;;;;;;11.06;77.32;98113.48;104657;1310;22473;-80
2022/11/11 10:01:02;;;;;;;7.80;4.80;;;;;;;11.11;76.18;98122.79;104685;1296;25231;-80
2022/11/11 10:03:39;;;;;;;8.00;4.20;;;;;;;11.16;76.77;98122.33;104703;1310;22470;-80
2022/11/11 10:06:15;;;;;;;5.80;3.80;;;;;;;11.27;76.05;98105.73;104704;1310;22906;-80
2022/11/11 10:09:01;;;;;;;7.30;4.20;;;;;;;11.35;76.41;98110.85;104640;1309;22750;-80
2022/11/11 10:11:47;;;;;;;8.30;4.20;;;;;;;11.44;75.89;98110.19;104638;1287;22484;-80
2022/11/11 10:14:19;;;;;;;5.70;3.60;;;;;;;11.51;75.15;98106.49;104666;1310;22610;-80
2022/11/11 10:17:00;;;;;;;7.10;3.50;;;;;;;11.61;74.92;98102.67;104586;1302;22480;-80
2022/11/11 10:19:34;;;;;;;9.00;4.40;;;;;;;11.62;74.20;98103.75;104655;1309;22468;-80
2022/11/11 10:22:19;;;;;;;7.50;3.80;;;;;;;11.60;73.80;98112.17;104696;1311;22466;-80
2022/11/11 10:25:03;;;;;;;8.50;4.50;;;;;;;11.63;73.64;98114.65;104698;1310;22645;-80
2022/11/11 10:27:35;;;;;;;7.90;4.70;;;;;;;11.80;74.33;98116.25;104644;1302;22495;-80
2022/11/11 10:30:20;;;;;;;7.30;4.10;;;;;;;11.96;73.35;98116.91;104658;1302;22536;-80
2022/11/11 10:32:58;;;;;;;7.80;3.50;;;;;;;11.89;72.57;98113.50;104638;1310;23490;-80
2022/11/11 10:35:33;;;;;;;8.10;3.90;;;;;;;11.86;72.84;98117.03;104659;1301;22497;-80
2022/11/11 10:38:32;;;;;;;8.40;4.10;;;;;;;11.84;72.50;98123.38;104615;1303;22674;-80
2022/11/11 10:41:12;;;;;;;6.70;4.00;;;;;;;11.88;72.14;98118.43;104638;1306;25463;-80
2022/11/11 10:43:47;;;;;;;7.90;3.50;;;;;;;11.94;72.67;98121.29;104654;1303;22693;-80
2022/11/11 10:46:24;;;;;;;7.00;3.90;;;;;;;12.08;73.01;98116.98;104604;1287;22476;-80
2022/11/11 10:49:02;;;;;;;6.30;3.30;;;;;;;12.25;72.78;98103.43;104652;1306;22499;-80
2022/11/11 10:51:42;;;;;;;6.80;3.50;;;;;;;12.48;72.81;98107.63;104671;1311;22497;-80
2022/11/11 10:54:20;;;;;;;7.80;2.50;;;;;;;12.79;71.46;98110.63;104650;1310;22475;-80
2022/11/11 10:56:59;;;;;;;5.60;2.90;;;;;;;12.87;68.67;98106.77;104625;1311;22457;-80
2022/11/11 10:59:36;;;;;;;4.70;2.30;;;;;;;12.79;67.35;98103.08;104698;1309;22476;-80
2022/11/11 11:02:18;;;;;;;4.10;2.60;;;;;;;12.78;67.50;98099.98;104695;1310;22510;-80
2022/11/11 11:04:53;;;;;;;4.90;2.40;;;;;;;12.88;68.04;98100.54;104719;1295;22548;-80
2022/11/11 11:07:34;;;;;;;3.70;2.00;;;;;;;12.81;66.12;98101.71;104645;1303;25450;-80
2022/11/11 11:10:12;;;;;;;5.00;2.20;;;;;;;12.69;65.72;98102.85;104650;1310;22539;-80
2022/11/11 11:12:47;;;;;;;3.00;2.30;;;;;;;12.60;65.18;98099.48;104689;1310;22544;-80
2022/11/11 11:15:22;;;;;;;2.90;1.80;;;;;;;12.69;64.92;98092.25;104678;1310;22502;-80
2022/11/11 11:18:01;;;;;;;5.30;2.20;;;;;;;12.84;64.53;98095.19;104609;1310;22528;-80
2022/11/11 11:20:32;;;;;;;4.30;2.30;;;;;;;13.02;64.30;98094.94;104628;1303;24264;-80
2022/11/11 11:23:04;;;;;;;3.80;2.20;;;;;;;13.13;63.00;98092.55;104688;1290;22483;-80
2022/11/11 11:25:35;;;;;;;5.30;2.20;;;;;;;13.22;63.52;98094.85;104655;1309;22472;-80
2022/11/11 11:28:12;;;;;;;4.00;2.30;;;;;;;13.37;63.93;98085.67;104693;1294;25058;-80
2022/11/11 11:31:00;;;;;;;6.00;2.60;;;;;;;13.42;63.52;98072.48;104737;1307;22473;-81
2022/11/11 11:33:53;;;;;;;5.10;2.50;;;;;;;13.45;62.85;98068.54;104816;1310;22507;-81
2022/11/11 11:36:24;;;;;;;4.20;2.70;;;;;;;13.48;62.38;98066.15;104716;1296;25199;-80
2022/11/11 11:38:55;;;;;;;3.60;2.30;;;;;;;13.57;63.05;98065.66;104710;1289;22515;-80
2022/11/11 11:41:41;;;;;;;4.70;2.50;;;;;;;13.62;61.56;98065.19;104693;1296;22658;-81
2022/11/11 11:44:29;;;;;;;3.80;2.10;;;;;;;13.61;61.96;98062.59;104710;1294;22469;-81
2022/11/11 11:47:18;;;;;;;5.90;2.60;;;;;;;13.79;62.57;98067.73;104648;1310;22945;-81
2022/11/11 11:53:09;;;;;;;5.30;2.60;;;;;;;13.96;61.31;98072.21;101810;1342;544840;-81
2022/11/11 11:55:46;;;;;;;7.10;3.30;;;;;;;13.93;61.10;98073.17;104621;1315;22489;-81
2022/11/11 11:58:36;;;;;;;4.30;2.80;;;;;;;13.95;61.49;98065.23;104408;1313;25519;-80
2022/11/11 12:01:18;;;;;;;3.40;2.30;;;;;;;13.88;61.31;98058.43;104391;1317;23023;-80
2022/11/11 12:04:13;;;;;;;5.50;2.60;;;;;;;13.93;61.17;98049.86;104346;1319;22534;-81
2022/11/11 12:06:55;;;;;;;5.60;3.30;;;;;;;14.14;61.62;98038.15;103498;1316;1127279;-80
2022/11/11 12:09:40;;;;;;;5.80;3.20;;;;;;;14.33;61.55;98037.41;104467;1313;22499;-81
2022/11/11 12:12:24;;;;;;;4.90;3.40;;;;;;;14.36;60.85;98045.85;104443;1313;24353;-81
2022/11/11 12:15:08;;;;;;;4.90;2.50;;;;;;;14.33;61.14;98054.11;104863;1292;22550;-80
2022/11/11 12:17:55;;;;;;;6.40;2.70;;;;;;;14.33;61.31;98062.70;104772;1307;25469;-81
2022/11/11 12:20:30;;;;;;;4.90;3.10;;;;;;;14.35;61.58;98065.32;104874;1295;24878;-81
2022/11/11 12:23:18;;;;;;;5.10;2.90;;;;;;;14.37;61.32;98068.86;104827;1294;22463;-80
2022/11/11 12:26:04;;;;;;;6.30;3.40;;;;;;;14.33;61.51;98065.53;104824;1310;25297;-80
2022/11/11 12:28:52;;;;;;;6.20;3.10;;;;;;;14.38;62.28;98068.48;104805;1295;24265;-80
2022/11/11 12:31:34;;;;;;;5.40;3.00;;;;;;;14.36;60.77;98070.51;104844;1302;22484;-81
2022/11/11 12:34:24;;;;;;;4.80;3.30;;;;;;;14.12;59.71;98066.90;104860;1292;22542;-80
2022/11/11 12:37:04;;;;;;;7.10;3.30;;;;;;;13.94;59.88;98069.97;104782;1308;25371;-80
2022/11/11 12:39:55;;;;;;;5.70;3.00;;;;;;;13.85;59.93;98063.30;104856;1293;23075;-80
2022/11/11 12:42:44;;;;;;;5.60;3.00;;;;;;;13.81;60.38;98054.43;104851;1309;22607;-80
2022/11/11 12:45:17;;;;;;;5.00;3.10;;;;;;;13.77;60.14;98050.99;104874;1288;22824;-80
2022/11/11 12:48:03;;;;;;;5.90;3.00;;;;;;;13.67;60.10;98051.03;104837;1303;22553;-80
2022/11/11 12:50:41;;;;;;;8.30;3.50;;;;;;;13.59;60.47;98045.36;104833;1309;22509;-80
2022/11/11 12:53:25;;;;;;;5.90;3.20;;;;;;;13.56;61.15;98037.31;104854;1294;22457;-80
2022/11/11 12:56:13;;;;;;;6.60;3.50;;;;;;;13.58;61.27;98041.30;104819;1309;24259;-80
2022/11/11 12:58:52;;;;;;;6.40;3.10;;;;;;;13.56;61.12;98046.69;104821;1307;34187;-80
2022/11/11 13:01:33;;;;;;;7.60;4.00;;;;;;;13.54;61.15;98050.30;104817;1307;24323;-80
2022/11/11 13:04:22;;;;;;;6.00;3.40;;;;;;;13.53;61.41;98047.38;104791;1291;24013;-80
2022/11/11 13:07:06;;;;;;;5.20;3.30;;;;;;;13.49;61.68;98042.29;104765;1291;25461;-80
2022/11/11 13:09:51;;;;;;;5.10;3.40;;;;;;;13.42;61.23;98041.69;104783;1301;22501;-80
2022/11/11 13:12:32;;;;;;;5.60;3.20;;;;;;;13.32;61.56;98045.80;104829;1299;22475;-79
2022/11/11 13:15:12;;;;;;;4.60;3.10;;;;;;;13.27;61.82;98045.15;104818;1301;22491;-80